Time;durP1;ratioP1;P1;durP2;ratioP2;P2;SDS_P1;SDS_P2;PMS_P1;PMS_P2;Temp;Humidity;BMP_temperature;BMP_pressure;BME280_temperature;BME280_humidity;BME280_pressure;Samples;Min_cycle;Max_cycle;Signal;HPM_P1;HPM_P2
2022/09/11 00:01:32;;;;;;;14.57;12.63;;;24.00;57.90;;;;;;4978713;28;20442;-78
2022/09/11 00:04:00;;;;;;;18.27;13.50;;;24.00;57.70;;;;;;4978088;28;20471;-78
2022/09/11 00:06:29;;;;;;;17.20;13.13;;;24.00;57.80;;;;;;4977975;28;20499;-79
2022/09/11 00:08:59;;;;;;;15.70;12.90;;;24.00;57.90;;;;;;4976518;28;20441;-78
2022/09/11 00:11:27;;;;;;;14.20;12.43;;;24.00;57.70;;;;;;4977652;28;20427;-78
2022/09/11 00:13:55;;;;;;;15.80;11.90;;;23.90;57.70;;;;;;4972624;28;20447;-79
2022/09/11 00:16:25;;;;;;;14.83;12.20;;;24.00;57.90;;;;;;4958741;28;20466;-79
2022/09/11 00:18:54;;;;;;;17.03;12.20;;;23.90;57.60;;;;;;4959454;29;20506;-79
2022/09/11 00:21:22;;;;;;;15.03;12.47;;;23.90;57.70;;;;;;4966833;28;20485;-79
2022/09/11 00:23:52;;;;;;;17.03;11.97;;;23.90;57.80;;;;;;4978530;28;20478;-79
2022/09/11 00:26:20;;;;;;;15.27;12.80;;;23.90;57.70;;;;;;4979047;28;20470;-79
2022/09/11 00:28:49;;;;;;;15.20;11.73;;;23.90;57.50;;;;;;4978607;28;20446;-79
2022/09/11 00:31:18;;;;;;;14.43;12.87;;;23.90;57.70;;;;;;4976977;28;20474;-78
2022/09/11 00:33:45;;;;;;;17.90;13.53;;;23.90;57.70;;;;;;4977514;28;20541;-78
2022/09/11 00:36:14;;;;;;;13.80;12.30;;;23.90;57.50;;;;;;4977017;28;20495;-78
2022/09/11 00:38:42;;;;;;;16.00;12.90;;;23.90;57.70;;;;;;4976999;28;20428;-78
2022/09/11 00:41:14;;;;;;;15.00;12.47;;;23.90;57.70;;;;;;4977471;28;20413;-78
2022/09/11 00:43:52;;;;;;;15.83;13.00;;;23.80;58.20;;;;;;4977747;28;20456;-78
2022/09/11 00:46:20;;;;;;;14.50;12.10;;;23.80;57.70;;;;;;4960553;28;20450;-78
2022/09/11 00:48:49;;;;;;;16.30;13.53;;;23.90;57.70;;;;;;4957468;29;20506;-77
2022/09/11 00:51:19;;;;;;;20.07;14.00;;;23.90;57.80;;;;;;4958223;29;20500;-78
2022/09/11 00:53:47;;;;;;;15.67;12.70;;;23.80;57.60;;;;;;4965552;28;20446;-77
2022/09/11 00:56:16;;;;;;;15.33;12.67;;;23.80;57.80;;;;;;4976488;28;20509;-78
2022/09/11 00:58:44;;;;;;;19.60;12.90;;;23.90;57.70;;;;;;4976946;28;20425;-78
2022/09/11 01:01:13;;;;;;;14.20;12.30;;;23.90;57.60;;;;;;4977517;28;20487;-79
2022/09/11 01:03:41;;;;;;;17.90;12.77;;;23.80;57.60;;;;;;4979078;28;20494;-80
2022/09/11 01:06:09;;;;;;;13.37;11.97;;;23.80;57.80;;;;;;4976744;28;20451;-80
2022/09/11 01:08:37;;;;;;;14.00;12.40;;;23.80;57.70;;;;;;4960383;29;20422;-80
2022/09/11 01:11:14;;;;;;;19.50;12.97;;;23.80;57.60;;;;;;4975632;28;20432;-79
2022/09/11 01:13:46;;;;;;;16.43;13.00;;;23.80;57.60;;;;;;4983024;28;20417;-79
2022/09/11 01:16:17;;;;;;;16.40;13.60;;;23.80;57.70;;;;;;4983208;28;20480;-80
2022/09/11 01:18:48;;;;;;;15.90;13.30;;;23.80;57.70;;;;;;4982622;28;20504;-80
2022/09/11 01:21:28;;;;;;;16.07;12.43;;;23.80;57.80;;;;;;4982932;28;20424;-80
2022/09/11 01:24:08;;;;;;;17.40;14.50;;;23.80;57.70;;;;;;4981190;28;20476;-80
2022/09/11 01:26:49;;;;;;;18.03;13.90;;;23.80;57.60;;;;;;4981378;28;20492;-81
2022/09/11 01:29:20;;;;;;;16.93;13.17;;;23.80;57.80;;;;;;4980171;28;20450;-79
2022/09/11 01:31:53;;;;;;;17.63;14.00;;;23.70;57.60;;;;;;4980419;28;20501;-80
2022/09/11 01:34:22;;;;;;;18.27;14.63;;;23.70;57.80;;;;;;4960694;28;20439;-80
2022/09/11 01:36:52;;;;;;;18.27;14.30;;;23.70;57.70;;;;;;4980227;28;21071;-79
2022/09/11 01:39:21;;;;;;;16.40;14.30;;;23.70;57.70;;;;;;4979230;28;20421;-79
2022/09/11 01:41:52;;;;;;;18.10;14.33;;;23.70;57.70;;;;;;4978495;28;20454;-79
2022/09/11 01:44:23;;;;;;;15.63;13.30;;;23.70;57.80;;;;;;4979118;28;20478;-80
2022/09/11 01:46:52;;;;;;;14.63;13.03;;;23.70;57.80;;;;;;4979623;28;20508;-80
2022/09/11 01:49:24;;;;;;;16.67;13.63;;;23.70;57.80;;;;;;4979216;28;20455;-80
2022/09/11 01:51:53;;;;;;;20.03;14.07;;;23.70;57.70;;;;;;4979747;28;20442;-79
2022/09/11 01:54:22;;;;;;;17.50;14.20;;;23.70;57.80;;;;;;4978573;28;20450;-79
2022/09/11 01:56:52;;;;;;;18.67;14.63;;;23.60;57.70;;;;;;4980829;28;20462;-80
2022/09/11 01:59:24;;;;;;;18.07;15.00;;;23.60;57.70;;;;;;4961330;28;20426;-79
2022/09/11 02:01:56;;;;;;;15.90;13.77;;;23.60;57.70;;;;;;4976418;28;20454;-79
2022/09/11 02:04:28;;;;;;;17.97;13.90;;;23.60;57.80;;;;;;4985208;28;20444;-79
2022/09/11 02:06:58;;;;;;;17.40;14.40;;;23.60;57.80;;;;;;4980885;28;20456;-77
2022/09/11 02:09:27;;;;;;;15.50;13.50;;;23.50;57.60;;;;;;4974778;28;20554;-78
2022/09/11 02:11:55;;;;;;;21.20;14.87;;;23.50;57.80;;;;;;4974853;28;20431;-78
2022/09/11 02:14:26;;;;;;;18.77;14.73;;;23.50;58.00;;;;;;4974362;28;20468;-78
2022/09/11 02:17:03;;;;;;;20.30;15.73;;;23.50;57.90;;;;;;4974861;28;20469;-78
2022/09/11 02:19:42;;;;;;;19.90;15.07;;;23.50;58.00;;;;;;4979332;28;20424;-78
2022/09/11 02:22:23;;;;;;;16.80;14.00;;;23.50;57.90;;;;;;4981618;28;20470;-79
2022/09/11 02:24:55;;;;;;;19.10;14.90;;;23.40;57.90;;;;;;4960669;28;20445;-78
2022/09/11 02:27:34;;;;;;;18.23;15.20;;;23.50;58.00;;;;;;4960978;29;20523;-78
2022/09/11 02:30:09;;;;;;;17.27;14.97;;;23.50;58.00;;;;;;4959607;29;20505;-78
2022/09/11 02:32:59;;;;;;;17.90;14.70;;;23.50;58.00;;;;;;4960997;29;20451;-79
2022/09/11 02:35:44;;;;;;;19.57;14.97;;;23.50;58.00;;;;;;4960688;28;20475;-79
2022/09/11 02:38:19;;;;;;;17.13;14.13;;;23.40;57.70;;;;;;4961605;28;20527;-79
2022/09/11 02:40:59;;;;;;;18.10;14.87;;;23.40;57.90;;;;;;4980502;28;20446;-78
2022/09/11 02:43:46;;;;;;;18.83;14.30;;;23.40;57.90;;;;;;4980454;28;20427;-79
2022/09/11 02:46:48;;;;;;;17.10;14.07;;;23.40;57.90;;;;;;4980678;28;20453;-79
2022/09/11 02:49:26;;;;;;;15.90;13.47;;;23.30;57.80;;;;;;4979556;28;20458;-80
2022/09/11 02:52:27;;;;;;;16.87;13.37;;;23.40;58.10;;;;;;4979613;28;20449;-79
2022/09/11 02:58:01;;;;;;;20.57;15.63;;;23.30;58.10;;;;;;4959207;28;20530;-78
2022/09/11 03:00:32;;;;;;;18.60;14.63;;;23.30;57.80;;;;;;4959381;29;20435;-79
2022/09/11 03:03:19;;;;;;;18.23;14.63;;;23.30;57.90;;;;;;4960262;29;20446;-79
2022/09/11 03:06:06;;;;;;;17.10;14.20;;;23.30;57.90;;;;;;4957149;28;20503;-78
2022/09/11 03:08:36;;;;;;;15.73;13.90;;;23.30;58.10;;;;;;4959839;29;20529;-78
2022/09/11 03:11:16;;;;;;;18.37;15.00;;;23.30;57.90;;;;;;4971001;28;20462;-78
2022/09/11 03:13:45;;;;;;;19.60;16.17;;;23.20;58.10;;;;;;4971711;28;20449;-79
2022/09/11 03:16:13;;;;;;;20.33;16.07;;;23.20;58.00;;;;;;4978577;28;20445;-79
2022/09/11 03:18:43;;;;;;;19.83;15.57;;;23.20;58.00;;;;;;4979723;28;20447;-79
2022/09/11 03:21:11;;;;;;;19.43;15.20;;;23.20;58.00;;;;;;4979190;28;20478;-79
2022/09/11 03:23:42;;;;;;;18.80;15.13;;;23.20;58.10;;;;;;4980308;28;20497;-80
2022/09/11 03:26:14;;;;;;;17.23;14.13;;;23.20;58.00;;;;;;4980394;28;20560;-79
2022/09/11 03:28:43;;;;;;;21.13;15.30;;;23.10;58.00;;;;;;4979169;28;20465;-79
2022/09/11 03:31:17;;;;;;;20.83;15.27;;;23.20;58.20;;;;;;4981071;28;20446;-80
2022/09/11 03:33:46;;;;;;;17.43;14.50;;;23.10;58.00;;;;;;4980684;28;20450;-79
2022/09/11 03:36:19;;;;;;;19.70;15.60;;;23.10;58.10;;;;;;4980537;28;20474;-79
2022/09/11 03:38:57;;;;;;;17.10;14.93;;;23.00;58.00;;;;;;4977983;28;20446;-78
2022/09/11 03:41:29;;;;;;;18.10;14.93;;;23.00;58.10;;;;;;4978573;28;20452;-79
2022/09/11 03:43:57;;;;;;;17.70;14.77;;;23.00;58.10;;;;;;4978988;28;20465;-79
2022/09/11 03:46:26;;;;;;;19.40;15.93;;;23.00;58.10;;;;;;4977415;28;20471;-78
2022/09/11 03:48:56;;;;;;;20.10;16.20;;;23.00;58.00;;;;;;4977774;28;20454;-79
2022/09/11 03:51:25;;;;;;;24.53;15.90;;;23.00;57.80;;;;;;4979517;28;20839;-79
2022/09/11 03:54:07;;;;;;;19.20;15.53;;;23.00;58.10;;;;;;4979884;28;20481;-79
2022/09/11 03:56:36;;;;;;;19.53;15.53;;;23.00;58.10;;;;;;4979599;28;20443;-79
2022/09/11 03:59:13;;;;;;;18.70;15.00;;;23.00;58.20;;;;;;4978108;28;20450;-79
2022/09/11 04:01:43;;;;;;;18.53;15.03;;;23.00;58.00;;;;;;4977270;28;20446;-79
2022/09/11 04:04:14;;;;;;;17.83;15.63;;;22.90;57.90;;;;;;4979924;28;20937;-79
2022/09/11 04:06:42;;;;;;;20.43;15.70;;;22.90;58.50;;;;;;4979100;28;20474;-79
2022/09/11 04:09:10;;;;;;;20.30;15.70;;;22.90;58.30;;;;;;4979905;28;20460;-79
2022/09/11 04:11:44;;;;;;;19.50;15.60;;;22.90;58.20;;;;;;4979083;28;20450;-79
2022/09/11 04:14:12;;;;;;;16.40;14.30;;;22.90;58.20;;;;;;4980170;28;20454;-79
2022/09/11 04:16:40;;;;;;;18.83;13.87;;;22.90;58.10;;;;;;4980587;28;20441;-81
2022/09/11 04:19:12;;;;;;;17.73;14.87;;;22.90;58.00;;;;;;4987730;28;20454;-81
2022/09/11 04:21:42;;;;;;;17.03;14.30;;;22.90;57.80;;;;;;4986513;28;20445;-80
2022/09/11 04:24:14;;;;;;;17.23;14.33;;;22.90;58.20;;;;;;4984919;28;20446;-78
2022/09/11 04:26:48;;;;;;;15.37;13.70;;;22.90;58.10;;;;;;4984221;28;20547;-80
2022/09/11 04:29:17;;;;;;;20.47;15.30;;;22.90;58.30;;;;;;4987441;28;20442;-80
2022/09/11 04:31:45;;;;;;;18.87;14.80;;;22.90;58.00;;;;;;4988309;28;20420;-80
2022/09/11 04:34:23;;;;;;;20.90;15.50;;;22.90;58.00;;;;;;4988160;28;20480;-80
2022/09/11 04:37:03;;;;;;;17.60;15.10;;;22.80;57.90;;;;;;4988248;28;20509;-80
2022/09/11 04:39:32;;;;;;;20.07;15.43;;;22.90;57.90;;;;;;4990017;28;20450;-81
2022/09/11 04:42:03;;;;;;;20.00;15.07;;;22.90;58.00;;;;;;4989586;28;20571;-79
2022/09/11 04:44:31;;;;;;;19.20;14.57;;;22.80;57.90;;;;;;4989733;28;20431;-81
2022/09/11 04:46:59;;;;;;;20.77;15.40;;;22.90;58.10;;;;;;4990072;28;20478;-81
2022/09/11 04:49:27;;;;;;;20.57;15.67;;;22.80;57.90;;;;;;4980676;28;20450;-77
2022/09/11 04:51:54;;;;;;;22.13;15.40;;;22.80;58.10;;;;;;4982420;28;20432;-80
2022/09/11 04:54:26;;;;;;;25.50;15.90;;;22.80;58.10;;;;;;4990468;28;20571;-81
2022/09/11 04:56:56;;;;;;;19.33;15.20;;;22.90;57.90;;;;;;4990099;28;20440;-80
2022/09/11 04:59:29;;;;;;;22.30;16.03;;;22.80;57.80;;;;;;4989550;28;20451;-80
2022/09/11 05:01:57;;;;;;;20.17;16.57;;;22.80;58.00;;;;;;4988744;28;20454;-80
2022/09/11 05:04:25;;;;;;;21.40;16.73;;;22.90;57.90;;;;;;4988562;28;20425;-80
2022/09/11 05:06:55;;;;;;;20.23;16.00;;;22.80;57.70;;;;;;4988817;28;20532;-80
2022/09/11 05:09:23;;;;;;;19.83;15.97;;;22.80;57.80;;;;;;4988270;28;20465;-80
2022/09/11 05:12:04;;;;;;;19.80;15.50;;;22.80;58.40;;;;;;4989885;28;20421;-80
2022/09/11 05:14:38;;;;;;;20.90;16.10;;;22.80;58.00;;;;;;4989013;28;20514;-81
2022/09/11 05:17:06;;;;;;;20.57;16.33;;;22.80;57.80;;;;;;4989650;28;20433;-80
2022/09/11 05:19:47;;;;;;;27.47;18.10;;;22.80;57.90;;;;;;4989352;28;20458;-81
2022/09/11 05:22:18;;;;;;;19.90;16.43;;;22.80;58.00;;;;;;4990166;28;20469;-81
2022/09/11 05:25:07;;;;;;;20.47;17.20;;;22.70;57.90;;;;;;4988174;28;20451;-80
2022/09/11 05:27:45;;;;;;;20.73;16.80;;;22.80;58.00;;;;;;4983241;28;20444;-80
2022/09/11 05:30:20;;;;;;;19.27;15.60;;;22.80;57.90;;;;;;4981626;28;20504;-79
2022/09/11 05:33:03;;;;;;;21.07;16.53;;;22.80;58.00;;;;;;4980742;28;20510;-79
2022/09/11 05:35:34;;;;;;;23.00;17.20;;;22.90;57.80;;;;;;4978799;28;20477;-78
2022/09/11 05:38:02;;;;;;;22.27;17.43;;;22.90;57.90;;;;;;4978402;28;20457;-78
2022/09/11 05:40:34;;;;;;;20.37;16.80;;;22.90;57.90;;;;;;4979105;28;20468;-77
2022/09/11 05:43:08;;;;;;;20.43;16.57;;;22.80;57.70;;;;;;4976598;28;20424;-78
2022/09/11 05:45:37;;;;;;;22.90;17.90;;;22.90;58.00;;;;;;4979677;28;20470;-78
2022/09/11 05:48:05;;;;;;;21.33;16.07;;;22.90;57.90;;;;;;4981017;28;20450;-80
2022/09/11 05:50:33;;;;;;;20.20;15.90;;;22.90;57.80;;;;;;4985417;28;20477;-79
2022/09/11 05:53:07;;;;;;;21.23;16.83;;;22.90;57.70;;;;;;4985407;28;20454;-79
2022/09/11 05:55:41;;;;;;;20.00;15.77;;;22.90;57.90;;;;;;4984697;28;20461;-79
2022/09/11 05:58:18;;;;;;;19.80;15.07;;;22.90;57.70;;;;;;4983437;28;20822;-79
2022/09/11 06:00:49;;;;;;;19.73;15.60;;;22.90;57.70;;;;;;4983994;28;20462;-79
2022/09/11 06:03:30;;;;;;;17.33;14.90;;;22.90;57.60;;;;;;4985682;28;20389;-78
2022/09/11 06:06:00;;;;;;;19.87;15.63;;;23.00;57.70;;;;;;4983905;28;20507;-80
2022/09/11 06:08:31;;;;;;;19.57;15.53;;;23.00;57.60;;;;;;4982340;28;20945;-80
2022/09/11 06:11:04;;;;;;;19.40;15.57;;;23.00;57.40;;;;;;4981848;28;20961;-80
2022/09/11 06:13:35;;;;;;;19.07;15.60;;;23.00;57.50;;;;;;4981572;28;20454;-80
2022/09/11 06:16:09;;;;;;;18.50;14.50;;;23.10;57.50;;;;;;4978630;28;20457;-80
2022/09/11 06:18:42;;;;;;;18.20;14.90;;;23.10;57.40;;;;;;4976408;28;20454;-79
2022/09/11 06:21:11;;;;;;;17.20;14.40;;;23.10;57.40;;;;;;4970013;28;20477;-79
2022/09/11 06:23:39;;;;;;;18.80;14.10;;;23.10;57.30;;;;;;4975126;28;20424;-79
2022/09/11 06:26:08;;;;;;;18.40;13.33;;;23.20;57.50;;;;;;4975087;28;20534;-79
2022/09/11 06:28:46;;;;;;;16.10;13.43;;;23.20;57.40;;;;;;4975948;28;20457;-78
2022/09/11 06:31:28;;;;;;;15.70;13.57;;;23.30;57.10;;;;;;4979264;28;20438;-79
2022/09/11 06:34:05;;;;;;;15.63;13.17;;;23.30;57.30;;;;;;4977727;28;20476;-78
2022/09/11 06:36:47;;;;;;;15.83;12.33;;;23.30;57.20;;;;;;4975774;28;20489;-80
2022/09/11 06:39:21;;;;;;;15.57;13.07;;;23.40;57.00;;;;;;4979612;28;20473;-78
2022/09/11 06:41:51;;;;;;;17.43;14.03;;;23.40;57.30;;;;;;4981564;28;20450;-78
2022/09/11 06:44:38;;;;;;;17.10;12.80;;;23.50;56.90;;;;;;4980256;28;20503;-78
2022/09/11 06:47:09;;;;;;;15.30;12.70;;;23.50;56.80;;;;;;4980440;28;20490;-79
2022/09/11 06:49:37;;;;;;;14.03;11.63;;;23.60;57.10;;;;;;4981273;28;20450;-79
2022/09/11 06:52:05;;;;;;;14.03;12.17;;;23.60;57.00;;;;;;4980892;28;20437;-79
2022/09/11 06:54:39;;;;;;;13.60;11.73;;;23.70;56.80;;;;;;4982484;28;20503;-80
2022/09/11 06:57:14;;;;;;;13.40;11.30;;;23.70;56.90;;;;;;4983205;28;20449;-80
2022/09/11 06:59:53;;;;;;;13.83;11.50;;;23.70;56.60;;;;;;4983724;28;20470;-79
2022/09/11 07:02:27;;;;;;;13.10;11.20;;;23.70;56.60;;;;;;4984145;28;20438;-79
2022/09/11 07:05:00;;;;;;;11.60;10.40;;;23.70;56.60;;;;;;4979662;28;20416;-79
2022/09/11 07:07:32;;;;;;;13.00;10.87;;;23.80;56.90;;;;;;4983006;28;20470;-80
2022/09/11 07:10:04;;;;;;;13.10;10.77;;;23.80;56.40;;;;;;4984126;28;20478;-79
2022/09/11 07:12:33;;;;;;;11.30;10.07;;;23.80;56.50;;;;;;4985103;28;20424;-79
2022/09/11 07:15:03;;;;;;;12.13;10.70;;;23.80;56.70;;;;;;4984307;28;20481;-79
2022/09/11 07:17:37;;;;;;;11.87;9.60;;;23.90;56.40;;;;;;4985806;28;20432;-80
2022/09/11 07:20:07;;;;;;;10.80;9.70;;;24.00;56.30;;;;;;4986070;28;20447;-80
2022/09/11 07:22:35;;;;;;;12.10;9.57;;;24.10;56.40;;;;;;4986106;28;20469;-80
2022/09/11 07:25:03;;;;;;;11.17;9.67;;;24.20;56.20;;;;;;4985085;28;20484;-79
2022/09/11 07:27:37;;;;;;;11.20;9.37;;;24.30;56.00;;;;;;4984650;28;20474;-79
2022/09/11 07:30:33;;;;;;;;;;;;;;;;;;;;;
2022/09/11 07:33:02;;;;;;;6.90;5.93;;;24.20;56.00;;;;;;4976667;28;20450;-79
2022/09/11 07:35:30;;;;;;;42.83;26.57;;;24.20;57.40;;;;;;4975809;28;20474;-77
2022/09/11 07:37:58;;;;;;;25.70;19.47;;;23.30;59.20;;;;;;4978326;28;20437;-77
2022/09/11 07:40:26;;;;;;;19.63;14.37;;;22.80;62.30;;;;;;4978262;28;20432;-78
2022/09/11 07:42:54;;;;;;;23.13;15.47;;;22.00;63.30;;;;;;4965505;28;20463;-78
2022/09/11 07:45:23;;;;;;;23.30;15.30;;;21.90;65.60;;;;;;4975331;28;20474;-79
2022/09/11 07:47:51;;;;;;;21.03;14.03;;;22.10;66.60;;;;;;4976858;28;21005;-79
2022/09/11 07:50:19;;;;;;;31.67;17.80;;;21.90;67.20;;;;;;4985402;28;20819;-79
2022/09/11 07:52:47;;;;;;;32.53;18.67;;;22.20;68.00;;;;;;4996315;28;20503;-79
2022/09/11 07:55:15;;;;;;;27.20;17.90;;;22.10;67.50;;;;;;4996509;28;20435;-79
2022/09/11 07:57:44;;;;;;;28.53;16.97;;;22.00;68.20;;;;;;4996915;28;20512;-79
2022/09/11 08:00:15;;;;;;;28.63;18.30;;;22.10;68.70;;;;;;4996935;28;20453;-79
2022/09/11 08:02:44;;;;;;;26.97;17.17;;;21.90;69.40;;;;;;4998276;28;20449;-79
2022/09/11 08:05:12;;;;;;;29.30;17.43;;;21.70;70.40;;;;;;4999756;28;20451;-79
2022/09/11 08:07:40;;;;;;;27.40;18.27;;;21.50;73.00;;;;;;4988178;28;20477;-78
2022/09/11 08:10:10;;;;;;;39.23;25.03;;;21.40;73.30;;;;;;4980086;28;20450;-79
2022/09/11 08:12:55;;;;;;;42.00;27.80;;;21.50;73.90;;;;;;4980394;28;20449;-79
2022/09/11 08:15:26;;;;;;;27.43;18.10;;;21.60;74.40;;;;;;4980300;28;20493;-79
2022/09/11 08:17:56;;;;;;;27.77;17.73;;;21.90;74.20;;;;;;4980110;28;20512;-79
2022/09/11 08:20:24;;;;;;;23.87;16.10;;;22.20;74.20;;;;;;4979732;28;20973;-79
2022/09/11 08:22:52;;;;;;;27.27;17.67;;;22.30;75.20;;;;;;4979412;28;20432;-79
2022/09/11 08:25:20;;;;;;;23.23;17.77;;;22.30;74.30;;;;;;4979209;28;20466;-79
2022/09/11 08:27:49;;;;;;;29.07;18.57;;;22.40;73.00;;;;;;4969847;28;20502;-79
2022/09/11 08:30:17;;;;;;;24.23;16.97;;;22.60;74.30;;;;;;4958491;29;20455;-78
2022/09/11 08:32:45;;;;;;;24.70;16.70;;;22.60;72.80;;;;;;4959120;29;20455;-78
2022/09/11 08:35:14;;;;;;;24.80;14.87;;;22.70;72.30;;;;;;4958622;28;20475;-78
2022/09/11 08:37:42;;;;;;;18.90;14.33;;;23.00;73.10;;;;;;4973975;28;20453;-78
2022/09/11 08:40:10;;;;;;;23.10;16.60;;;23.00;71.80;;;;;;4977444;28;20438;-78
2022/09/11 08:42:39;;;;;;;20.90;15.17;;;23.00;71.50;;;;;;4979896;28;20420;-79
2022/09/11 08:45:10;;;;;;;20.90;14.67;;;23.10;71.70;;;;;;4979970;28;20454;-79
2022/09/11 08:47:38;;;;;;;42.60;26.67;;;22.90;70.80;;;;;;4980149;28;20482;-79
2022/09/11 08:50:08;;;;;;;52.33;34.23;;;22.90;72.50;;;;;;4979852;28;20501;-78
2022/09/11 08:52:38;;;;;;;31.33;20.53;;;23.00;71.90;;;;;;4979697;28;20446;-78
2022/09/11 08:55:09;;;;;;;25.53;16.10;;;23.30;71.70;;;;;;4979326;28;20512;-78
2022/09/11 08:57:40;;;;;;;21.47;15.57;;;23.60;70.10;;;;;;4978916;28;20439;-78
2022/09/11 09:00:13;;;;;;;21.20;14.80;;;23.70;68.40;;;;;;4979323;28;20416;-78
2022/09/11 09:03:01;;;;;;;17.60;13.90;;;23.90;68.70;;;;;;4979005;28;20964;-78
2022/09/11 09:05:33;;;;;;;15.00;12.60;;;23.90;68.00;;;;;;4979533;28;20493;-78
2022/09/11 09:08:07;;;;;;;15.97;12.40;;;24.40;67.60;;;;;;4978892;28;20459;-78
2022/09/11 09:10:43;;;;;;;14.63;11.77;;;24.40;65.50;;;;;;4979461;28;20457;-78
2022/09/11 09:13:21;;;;;;;15.07;11.97;;;24.30;64.50;;;;;;4977922;28;20469;-78
2022/09/11 09:15:53;;;;;;;10.30;9.30;;;24.40;65.70;;;;;;4978941;28;20444;-79
2022/09/11 09:18:25;;;;;;;13.40;11.30;;;24.80;66.00;;;;;;4978397;28;20446;-78
2022/09/11 09:20:59;;;;;;;11.30;8.63;;;25.30;63.60;;;;;;4978889;28;20446;-78
2022/09/11 09:23:31;;;;;;;8.93;7.87;;;25.90;63.30;;;;;;4978544;28;20409;-79
2022/09/11 09:25:59;;;;;;;14.60;11.83;;;26.40;61.20;;;;;;4978844;28;20527;-79
2022/09/11 09:28:30;;;;;;;10.63;8.27;;;26.00;59.40;;;;;;4979552;28;20452;-80
2022/09/11 09:31:00;;;;;;;11.13;9.90;;;26.10;61.10;;;;;;4981894;28;20416;-80
2022/09/11 09:33:30;;;;;;;11.47;8.93;;;26.20;58.40;;;;;;4980257;28;20923;-78
2022/09/11 09:36:02;;;;;;;12.43;10.10;;;25.80;59.30;;;;;;4980016;28;20488;-79
2022/09/11 09:38:32;;;;;;;12.27;8.63;;;25.50;60.10;;;;;;4980658;28;20446;-79
2022/09/11 09:41:08;;;;;;;12.03;8.50;;;25.60;59.80;;;;;;4980398;28;20450;-79
2022/09/11 09:43:40;;;;;;;10.23;8.70;;;25.40;59.20;;;;;;4979251;28;20440;-79
2022/09/11 09:46:14;;;;;;;11.33;9.30;;;25.50;60.20;;;;;;4980126;28;20497;-79
2022/09/11 09:48:42;;;;;;;8.87;8.00;;;25.50;59.20;;;;;;4980605;28;20495;-79
2022/09/11 09:51:12;;;;;;;10.00;9.00;;;25.40;60.60;;;;;;4979349;28;20775;-79
2022/09/11 09:53:43;;;;;;;10.40;9.10;;;25.70;58.30;;;;;;4980170;28;20788;-80
2022/09/11 09:56:12;;;;;;;9.50;8.57;;;25.70;58.80;;;;;;4980532;28;20448;-79
2022/09/11 09:58:41;;;;;;;11.07;9.80;;;25.80;58.60;;;;;;4980749;28;20449;-79
2022/09/11 10:01:31;;;;;;;8.80;8.00;;;25.20;58.40;;;;;;4981036;28;20433;-79
2022/09/11 10:04:09;;;;;;;10.30;8.90;;;25.20;58.50;;;;;;4973961;28;20452;-79
2022/09/11 10:06:37;;;;;;;11.40;10.03;;;24.70;58.90;;;;;;4979920;28;20497;-79
2022/09/11 10:09:09;;;;;;;9.23;8.33;;;24.60;60.60;;;;;;4980553;28;20474;-79
2022/09/11 10:11:37;;;;;;;9.70;8.70;;;24.40;60.60;;;;;;4979528;28;20953;-79
2022/09/11 10:14:05;;;;;;;9.27;7.73;;;24.10;60.10;;;;;;4978701;28;20454;-80
2022/09/11 10:16:39;;;;;;;29.13;11.07;;;23.70;61.70;;;;;;4980025;28;20452;-79
2022/09/11 10:19:08;;;;;;;15.37;9.53;;;23.90;60.90;;;;;;4980663;28;20479;-79
2022/09/11 10:21:38;;;;;;;8.13;7.33;;;24.00;62.40;;;;;;4980308;28;20450;-79
2022/09/11 10:24:22;;;;;;;7.60;6.90;;;24.30;61.50;;;;;;4979303;28;20421;-79
2022/09/11 10:26:52;;;;;;;17.10;12.80;;;24.00;60.20;;;;;;4979483;28;20561;-80
2022/09/11 10:29:23;;;;;;;10.63;7.73;;;24.60;61.70;;;;;;4980686;28;20481;-80
2022/09/11 10:31:51;;;;;;;14.40;11.47;;;25.30;59.80;;;;;;4979824;28;20439;-80
2022/09/11 10:34:21;;;;;;;6.23;5.73;;;25.90;59.20;;;;;;4979796;28;20450;-80
2022/09/11 10:36:52;;;;;;;6.27;5.63;;;26.30;56.90;;;;;;4980265;28;20453;-78
2022/09/11 10:39:25;;;;;;;8.47;6.90;;;26.50;54.30;;;;;;4981296;28;20438;-81
2022/09/11 10:42:04;;;;;;;6.77;6.10;;;26.50;52.80;;;;;;4985009;28;20437;-81
2022/09/11 10:44:35;;;;;;;12.53;5.80;;;26.30;53.00;;;;;;4982392;28;20448;-81
2022/09/11 10:47:05;;;;;;;3.73;3.43;;;26.90;54.40;;;;;;4962497;28;20488;-79
2022/09/11 10:49:33;;;;;;;3.07;2.50;;;27.30;53.80;;;;;;4959700;28;20509;-81
2022/09/11 10:52:05;;;;;;;2.60;2.37;;;27.50;52.20;;;;;;4983186;28;20428;-80
2022/09/11 10:54:45;;;;;;;2.63;2.43;;;28.00;50.60;;;;;;4981828;28;20428;-81
2022/09/11 10:57:18;;;;;;;2.30;2.20;;;28.30;50.40;;;;;;4978971;28;20512;-81
2022/09/11 10:59:55;;;;;;;2.47;2.07;;;28.60;49.20;;;;;;4979525;28;20454;-82
2022/09/11 11:02:30;;;;;;;1.60;1.50;;;28.70;47.60;;;;;;4979595;28;20412;-80
2022/09/11 11:05:02;;;;;;;1.90;1.80;;;28.50;46.60;;;;;;4979505;28;20457;-81
2022/09/11 11:08:12;;;;;;;2.40;1.50;;;28.00;46.70;;;;;;4979603;28;20409;-83
2022/09/11 11:10:50;;;;;;;1.70;1.60;;;27.60;47.30;;;;;;4978225;28;20456;-80
2022/09/11 11:13:30;;;;;;;3.10;2.73;;;28.00;47.10;;;;;;4978341;28;20461;-78
2022/09/11 11:16:07;;;;;;;1.87;1.77;;;28.40;47.50;;;;;;4965747;28;20444;-80
2022/09/11 11:18:47;;;;;;;1.50;1.40;;;28.70;46.20;;;;;;4977759;28;20452;-80
2022/09/11 11:21:24;;;;;;;2.30;1.60;;;28.90;45.90;;;;;;4977372;28;20446;-82
2022/09/11 11:24:12;;;;;;;2.60;1.50;;;29.00;45.40;;;;;;4979090;28;20420;-80
2022/09/11 11:26:49;;;;;;;1.40;1.40;;;29.00;44.90;;;;;;4978352;28;20481;-81
2022/09/11 11:29:32;;;;;;;1.23;1.23;;;28.80;43.80;;;;;;4959683;29;20489;-80
2022/09/11 11:32:21;;;;;;;1.40;1.30;;;28.80;43.40;;;;;;4959783;29;20455;-80
2022/09/11 11:35:00;;;;;;;1.40;1.40;;;28.80;44.20;;;;;;4958054;28;20447;-79
2022/09/11 11:37:30;;;;;;;4.70;1.20;;;28.90;44.60;;;;;;4958692;28;20451;-78
2022/09/11 11:40:00;;;;;;;2.23;1.20;;;28.80;43.30;;;;;;4963576;29;20422;-82
2022/09/11 11:42:30;;;;;;;4.10;1.50;;;28.40;43.60;;;;;;4960899;29;20540;-81
2022/09/11 11:45:00;;;;;;;1.30;1.10;;;28.80;43.30;;;;;;4960564;28;20446;-81
2022/09/11 11:47:29;;;;;;;1.03;1.03;;;29.70;41.80;;;;;;4961164;29;20435;-82
2022/09/11 11:50:01;;;;;;;1.03;1.03;;;32.20;39.60;;;;;;4965402;28;20475;-82
2022/09/11 11:52:52;;;;;;;0.80;0.80;;;33.00;36.40;;;;;;4964712;29;20434;-82
2022/09/11 11:55:21;;;;;;;1.50;0.80;;;33.90;34.40;;;;;;4972545;28;20574;-83
2022/09/11 11:57:55;;;;;;;2.50;0.70;;;35.10;32.40;;;;;;4983995;28;20446;-82
2022/09/11 12:00:23;;;;;;;5.40;0.90;;;36.30;31.20;;;;;;4983962;28;20431;-82
2022/09/11 12:02:53;;;;;;;3.23;0.80;;;36.70;30.10;;;;;;4984881;28;20476;-82
2022/09/11 12:05:23;;;;;;;1.27;0.80;;;36.90;29.50;;;;;;4983414;28;20468;-81
2022/09/11 12:07:51;;;;;;;1.33;0.70;;;37.80;28.70;;;;;;4983828;28;20449;-81
2022/09/11 12:10:22;;;;;;;0.60;0.60;;;37.40;28.70;;;;;;4978874;28;20453;-79
2022/09/11 12:12:53;;;;;;;0.70;0.70;;;37.90;28.20;;;;;;4971835;28;20445;-79
2022/09/11 12:15:22;;;;;;;2.40;0.80;;;38.70;27.20;;;;;;4979694;28;20532;-80
2022/09/11 12:17:59;;;;;;;1.70;0.60;;;39.40;26.40;;;;;;4972647;28;20457;-78
2022/09/11 12:20:35;;;;;;;0.50;0.50;;;38.10;27.30;;;;;;4985045;28;20476;-78
2022/09/11 12:23:04;;;;;;;0.70;0.70;;;37.90;26.90;;;;;;4982950;28;20452;-79
2022/09/11 12:26:03;;;;;;;0.73;0.73;;;37.90;27.10;;;;;;4983551;28;20466;-78
2022/09/11 12:28:34;;;;;;;0.70;0.70;;;36.10;28.70;;;;;;4981075;28;20437;-78
2022/09/11 12:31:03;;;;;;;1.33;0.77;;;34.70;30.00;;;;;;4984778;28;20442;-79
2022/09/11 12:33:53;;;;;;;1.00;1.00;;;33.10;32.00;;;;;;4982975;28;20452;-78
2022/09/11 12:36:43;;;;;;;1.00;1.00;;;31.80;34.40;;;;;;4968025;28;20590;-78
2022/09/11 12:39:19;;;;;;;0.80;0.80;;;31.70;35.10;;;;;;4960311;29;20439;-78
2022/09/11 12:41:46;;;;;;;0.80;0.80;;;31.20;35.10;;;;;;4959884;28;20469;-78
2022/09/11 12:44:50;;;;;;;1.10;0.90;;;31.00;35.70;;;;;;4959452;29;20447;-78
2022/09/11 12:47:20;;;;;;;1.90;0.80;;;30.30;36.10;;;;;;4959199;28;20447;-77
2022/09/11 12:49:53;;;;;;;1.00;1.00;;;30.20;36.40;;;;;;4960148;29;20466;-78
2022/09/11 12:52:32;;;;;;;1.43;0.87;;;29.80;37.00;;;;;;4967848;28;20485;-80
2022/09/11 12:55:04;;;;;;;0.80;0.80;;;29.40;37.60;;;;;;4978809;28;20415;-77
2022/09/11 12:57:34;;;;;;;1.00;0.90;;;29.20;38.20;;;;;;4975318;28;20446;-77
2022/09/11 13:00:04;;;;;;;0.97;0.87;;;29.10;38.30;;;;;;4991795;28;20446;-78
2022/09/11 13:02:35;;;;;;;0.90;0.90;;;29.20;38.10;;;;;;4996412;28;20444;-78
2022/09/11 13:05:03;;;;;;;1.40;1.30;;;29.20;38.10;;;;;;4997208;28;20527;-79